sensor_id;sensor_type;location;lat;lon;timestamp;temperature;humidity
24408;DHT22;12542;50.924;4.516;2023-11-21T00:00:16;12.00;99.90
24408;DHT22;12542;50.924;4.516;2023-11-21T00:02:43;12.00;99.90
24408;DHT22;12542;50.924;4.516;2023-11-21T00:05:13;11.90;99.90
24408;DHT22;12542;50.924;4.516;2023-11-21T00:07:43;12.00;99.90
24408;DHT22;12542;50.924;4.516;2023-11-21T00:10:09;12.00;99.90
24408;DHT22;12542;50.924;4.516;2023-11-21T00:12:36;12.10;99.90
24408;DHT22;12542;50.924;4.516;2023-11-21T00:15:38;12.10;99.90
24408;DHT22;12542;50.924;4.516;2023-11-21T00:18:04;12.20;99.90
24408;DHT22;12542;50.924;4.516;2023-11-21T00:20:30;12.20;99.90
24408;DHT22;12542;50.924;4.516;2023-11-21T00:22:56;12.10;99.90
24408;DHT22;12542;50.924;4.516;2023-11-21T00:25:21;12.10;99.90
24408;DHT22;12542;50.924;4.516;2023-11-21T00:27:47;12.00;99.90
24408;DHT22;12542;50.924;4.516;2023-11-21T00:30:13;12.10;99.90
24408;DHT22;12542;50.924;4.516;2023-11-21T00:32:39;12.10;99.90
24408;DHT22;12542;50.924;4.516;2023-11-21T00:35:05;12.10;99.90
24408;DHT22;12542;50.924;4.516;2023-11-21T00:37:36;12.00;99.90
24408;DHT22;12542;50.924;4.516;2023-11-21T00:40:02;11.90;99.90
24408;DHT22;12542;50.924;4.516;2023-11-21T00:42:30;12.00;99.90
24408;DHT22;12542;50.924;4.516;2023-11-21T00:44:59;11.90;99.90
24408;DHT22;12542;50.924;4.516;2023-11-21T00:47:25;11.90;99.90
24408;DHT22;12542;50.924;4.516;2023-11-21T00:49:50;12.00;99.90
24408;DHT22;12542;50.924;4.516;2023-11-21T00:52:16;11.90;99.90
24408;DHT22;12542;50.924;4.516;2023-11-21T00:54:42;11.90;99.90
24408;DHT22;12542;50.924;4.516;2023-11-21T00:57:10;11.80;99.90
24408;DHT22;12542;50.924;4.516;2023-11-21T00:59:37;11.80;99.90
24408;DHT22;12542;50.924;4.516;2023-11-21T01:02:03;11.70;99.90
24408;DHT22;12542;50.924;4.516;2023-11-21T01:04:30;11.70;99.90
24408;DHT22;12542;50.924;4.516;2023-11-21T01:06:58;11.70;99.90
24408;DHT22;12542;50.924;4.516;2023-11-21T01:09:23;11.70;99.90
24408;DHT22;12542;50.924;4.516;2023-11-21T01:11:49;11.70;99.90
24408;DHT22;12542;50.924;4.516;2023-11-21T01:14:15;11.70;99.90
24408;DHT22;12542;50.924;4.516;2023-11-21T01:16:40;11.70;99.90
24408;DHT22;12542;50.924;4.516;2023-11-21T01:19:06;11.70;99.90
24408;DHT22;12542;50.924;4.516;2023-11-21T01:21:32;11.70;99.90
24408;DHT22;12542;50.924;4.516;2023-11-21T01:23:59;11.70;99.90
24408;DHT22;12542;50.924;4.516;2023-11-21T01:26:25;11.70;99.90
24408;DHT22;12542;50.924;4.516;2023-11-21T01:28:51;11.70;99.90
24408;DHT22;12542;50.924;4.516;2023-11-21T01:31:16;11.70;99.90
24408;DHT22;12542;50.924;4.516;2023-11-21T01:33:42;11.70;99.90
24408;DHT22;12542;50.924;4.516;2023-11-21T01:36:08;11.80;99.90
24408;DHT22;12542;50.924;4.516;2023-11-21T01:38:34;11.80;99.90
24408;DHT22;12542;50.924;4.516;2023-11-21T01:41:00;11.80;99.90
24408;DHT22;12542;50.924;4.516;2023-11-21T01:43:26;11.70;99.90
24408;DHT22;12542;50.924;4.516;2023-11-21T01:45:54;11.70;99.90
24408;DHT22;12542;50.924;4.516;2023-11-21T01:48:22;11.80;99.90
24408;DHT22;12542;50.924;4.516;2023-11-21T01:50:49;11.80;99.90
24408;DHT22;12542;50.924;4.516;2023-11-21T01:53:15;11.80;99.90
24408;DHT22;12542;50.924;4.516;2023-11-21T01:55:45;11.80;99.90
24408;DHT22;12542;50.924;4.516;2023-11-21T01:58:12;11.80;99.90
24408;DHT22;12542;50.924;4.516;2023-11-21T02:00:38;11.80;99.90
24408;DHT22;12542;50.924;4.516;2023-11-21T02:03:04;11.80;99.90
24408;DHT22;12542;50.924;4.516;2023-11-21T02:05:30;11.90;99.90
24408;DHT22;12542;50.924;4.516;2023-11-21T02:07:56;11.90;99.90
24408;DHT22;12542;50.924;4.516;2023-11-21T02:10:22;12.00;99.90
24408;DHT22;12542;50.924;4.516;2023-11-21T02:12:51;12.00;99.90
24408;DHT22;12542;50.924;4.516;2023-11-21T02:15:17;11.90;99.90
24408;DHT22;12542;50.924;4.516;2023-11-21T02:17:47;12.00;99.90
24408;DHT22;12542;50.924;4.516;2023-11-21T02:20:16;11.90;99.90
24408;DHT22;12542;50.924;4.516;2023-11-21T02:22:48;11.90;99.90
24408;DHT22;12542;50.924;4.516;2023-11-21T02:25:14;11.90;99.90
24408;DHT22;12542;50.924;4.516;2023-11-21T02:27:39;11.90;99.90
24408;DHT22;12542;50.924;4.516;2023-11-21T02:30:05;11.90;99.90
24408;DHT22;12542;50.924;4.516;2023-11-21T02:32:33;11.90;99.90
24408;DHT22;12542;50.924;4.516;2023-11-21T02:34:59;11.90;99.90
24408;DHT22;12542;50.924;4.516;2023-11-21T02:37:30;12.00;99.90
24408;DHT22;12542;50.924;4.516;2023-11-21T02:39:55;12.00;99.90
24408;DHT22;12542;50.924;4.516;2023-11-21T02:42:21;12.00;99.90
24408;DHT22;12542;50.924;4.516;2023-11-21T02:44:47;11.90;99.90
24408;DHT22;12542;50.924;4.516;2023-11-21T02:47:12;12.00;99.90
24408;DHT22;12542;50.924;4.516;2023-11-21T02:49:40;11.80;99.90
24408;DHT22;12542;50.924;4.516;2023-11-21T02:52:06;11.90;99.90
24408;DHT22;12542;50.924;4.516;2023-11-21T02:54:31;11.90;99.90
24408;DHT22;12542;50.924;4.516;2023-11-21T02:57:02;11.90;99.90
24408;DHT22;12542;50.924;4.516;2023-11-21T02:59:27;12.00;99.90
24408;DHT22;12542;50.924;4.516;2023-11-21T03:01:53;12.00;99.90
24408;DHT22;12542;50.924;4.516;2023-11-21T03:04:19;11.90;99.90
24408;DHT22;12542;50.924;4.516;2023-11-21T03:06:45;11.90;99.90
24408;DHT22;12542;50.924;4.516;2023-11-21T03:09:15;12.00;99.90
24408;DHT22;12542;50.924;4.516;2023-11-21T03:11:41;12.00;99.90
24408;DHT22;12542;50.924;4.516;2023-11-21T03:14:07;12.00;99.90
24408;DHT22;12542;50.924;4.516;2023-11-21T03:16:33;12.10;99.90
24408;DHT22;12542;50.924;4.516;2023-11-21T03:18:58;12.10;99.90
24408;DHT22;12542;50.924;4.516;2023-11-21T03:21:24;12.10;99.90
24408;DHT22;12542;50.924;4.516;2023-11-21T03:23:51;12.10;99.90
24408;DHT22;12542;50.924;4.516;2023-11-21T03:26:18;12.20;99.90
24408;DHT22;12542;50.924;4.516;2023-11-21T03:28:43;12.20;99.90
24408;DHT22;12542;50.924;4.516;2023-11-21T03:31:09;12.10;99.90
24408;DHT22;12542;50.924;4.516;2023-11-21T03:33:35;12.00;99.90
24408;DHT22;12542;50.924;4.516;2023-11-21T03:36:01;12.10;99.90
24408;DHT22;12542;50.924;4.516;2023-11-21T03:38:27;12.10;99.90
24408;DHT22;12542;50.924;4.516;2023-11-21T03:40:53;12.10;99.90
24408;DHT22;12542;50.924;4.516;2023-11-21T03:43:19;12.20;99.90
24408;DHT22;12542;50.924;4.516;2023-11-21T03:45:44;12.20;99.90
24408;DHT22;12542;50.924;4.516;2023-11-21T03:48:12;12.30;99.90
24408;DHT22;12542;50.924;4.516;2023-11-21T03:50:38;12.30;99.90
24408;DHT22;12542;50.924;4.516;2023-11-21T03:53:04;12.30;99.90
24408;DHT22;12542;50.924;4.516;2023-11-21T03:55:30;12.30;99.90
24408;DHT22;12542;50.924;4.516;2023-11-21T03:57:58;12.40;99.90
24408;DHT22;12542;50.924;4.516;2023-11-21T04:00:24;12.40;99.90
24408;DHT22;12542;50.924;4.516;2023-11-21T04:02:50;12.30;99.90
24408;DHT22;12542;50.924;4.516;2023-11-21T04:05:17;12.30;99.90
24408;DHT22;12542;50.924;4.516;2023-11-21T04:07:45;12.30;99.90
24408;DHT22;12542;50.924;4.516;2023-11-21T04:10:11;12.40;99.90
24408;DHT22;12542;50.924;4.516;2023-11-21T04:12:38;12.30;99.90
24408;DHT22;12542;50.924;4.516;2023-11-21T04:15:04;12.40;99.90
24408;DHT22;12542;50.924;4.516;2023-11-21T04:17:30;12.40;99.90
24408;DHT22;12542;50.924;4.516;2023-11-21T04:19:56;12.40;99.90
24408;DHT22;12542;50.924;4.516;2023-11-21T04:22:22;12.40;99.90
24408;DHT22;12542;50.924;4.516;2023-11-21T04:24:47;12.50;99.90
24408;DHT22;12542;50.924;4.516;2023-11-21T04:27:14;12.50;99.90
24408;DHT22;12542;50.924;4.516;2023-11-21T04:29:40;12.50;99.90
24408;DHT22;12542;50.924;4.516;2023-11-21T04:32:07;12.50;99.90
24408;DHT22;12542;50.924;4.516;2023-11-21T04:34:33;12.50;99.90
24408;DHT22;12542;50.924;4.516;2023-11-21T04:37:02;12.50;99.90
24408;DHT22;12542;50.924;4.516;2023-11-21T04:39:28;12.40;99.90
24408;DHT22;12542;50.924;4.516;2023-11-21T04:41:54;12.40;99.90
24408;DHT22;12542;50.924;4.516;2023-11-21T04:44:20;12.40;99.90
24408;DHT22;12542;50.924;4.516;2023-11-21T04:46:45;12.50;99.90
24408;DHT22;12542;50.924;4.516;2023-11-21T04:49:11;12.50;99.90
24408;DHT22;12542;50.924;4.516;2023-11-21T04:51:37;12.50;99.90
24408;DHT22;12542;50.924;4.516;2023-11-21T04:54:02;12.40;99.90
24408;DHT22;12542;50.924;4.516;2023-11-21T04:56:28;12.40;99.90
24408;DHT22;12542;50.924;4.516;2023-11-21T04:58:54;12.30;99.90
24408;DHT22;12542;50.924;4.516;2023-11-21T05:01:20;12.40;99.90
24408;DHT22;12542;50.924;4.516;2023-11-21T05:03:46;12.40;99.90
24408;DHT22;12542;50.924;4.516;2023-11-21T05:06:12;12.40;99.90
24408;DHT22;12542;50.924;4.516;2023-11-21T05:08:39;12.40;99.90
24408;DHT22;12542;50.924;4.516;2023-11-21T05:11:05;12.40;99.90
24408;DHT22;12542;50.924;4.516;2023-11-21T05:13:34;12.40;99.90
24408;DHT22;12542;50.924;4.516;2023-11-21T05:15:59;12.40;99.90
24408;DHT22;12542;50.924;4.516;2023-11-21T05:18:25;12.40;99.90
24408;DHT22;12542;50.924;4.516;2023-11-21T05:20:55;12.40;99.90
24408;DHT22;12542;50.924;4.516;2023-11-21T05:23:21;12.40;99.90
24408;DHT22;12542;50.924;4.516;2023-11-21T05:25:47;12.40;99.90
24408;DHT22;12542;50.924;4.516;2023-11-21T05:28:13;12.40;99.90
24408;DHT22;12542;50.924;4.516;2023-11-21T05:30:38;12.40;99.90
24408;DHT22;12542;50.924;4.516;2023-11-21T05:33:05;12.40;99.90
24408;DHT22;12542;50.924;4.516;2023-11-21T05:35:31;12.40;99.90
24408;DHT22;12542;50.924;4.516;2023-11-21T05:37:57;12.40;99.90
24408;DHT22;12542;50.924;4.516;2023-11-21T05:40:22;12.50;99.90
24408;DHT22;12542;50.924;4.516;2023-11-21T05:42:48;12.50;99.90
24408;DHT22;12542;50.924;4.516;2023-11-21T05:45:14;12.40;99.90
24408;DHT22;12542;50.924;4.516;2023-11-21T05:47:44;12.50;99.90
24408;DHT22;12542;50.924;4.516;2023-11-21T05:50:13;12.50;99.90
24408;DHT22;12542;50.924;4.516;2023-11-21T05:52:44;12.60;99.90
24408;DHT22;12542;50.924;4.516;2023-11-21T05:55:10;12.60;99.90
24408;DHT22;12542;50.924;4.516;2023-11-21T05:57:37;12.60;99.90
24408;DHT22;12542;50.924;4.516;2023-11-21T06:00:08;12.50;99.90
24408;DHT22;12542;50.924;4.516;2023-11-21T06:02:46;12.50;99.90
24408;DHT22;12542;50.924;4.516;2023-11-21T06:05:13;12.60;99.90
24408;DHT22;12542;50.924;4.516;2023-11-21T06:07:38;12.60;99.90
24408;DHT22;12542;50.924;4.516;2023-11-21T06:10:06;12.50;99.90
24408;DHT22;12542;50.924;4.516;2023-11-21T06:12:35;12.60;99.90
24408;DHT22;12542;50.924;4.516;2023-11-21T06:15:05;12.60;99.90
24408;DHT22;12542;50.924;4.516;2023-11-21T06:17:34;12.60;99.90
24408;DHT22;12542;50.924;4.516;2023-11-21T06:20:11;12.70;99.90
24408;DHT22;12542;50.924;4.516;2023-11-21T06:22:43;12.60;99.90
24408;DHT22;12542;50.924;4.516;2023-11-21T06:25:10;12.60;99.90
24408;DHT22;12542;50.924;4.516;2023-11-21T06:27:42;12.60;99.90
24408;DHT22;12542;50.924;4.516;2023-11-21T06:30:09;12.60;99.90
24408;DHT22;12542;50.924;4.516;2023-11-21T06:32:36;12.60;99.90
24408;DHT22;12542;50.924;4.516;2023-11-21T06:35:02;12.60;99.90
24408;DHT22;12542;50.924;4.516;2023-11-21T06:37:30;12.70;99.90
24408;DHT22;12542;50.924;4.516;2023-11-21T06:39:56;12.60;99.90
24408;DHT22;12542;50.924;4.516;2023-11-21T06:42:22;12.60;99.90
24408;DHT22;12542;50.924;4.516;2023-11-21T06:44:49;12.60;99.90
24408;DHT22;12542;50.924;4.516;2023-11-21T06:47:17;12.60;99.90
24408;DHT22;12542;50.924;4.516;2023-11-21T06:49:43;12.70;99.90
24408;DHT22;12542;50.924;4.516;2023-11-21T06:52:09;12.70;99.90
24408;DHT22;12542;50.924;4.516;2023-11-21T06:54:36;12.70;99.90
24408;DHT22;12542;50.924;4.516;2023-11-21T06:57:02;12.70;99.90
24408;DHT22;12542;50.924;4.516;2023-11-21T06:59:28;12.70;99.90
24408;DHT22;12542;50.924;4.516;2023-11-21T07:01:54;12.70;99.90
24408;DHT22;12542;50.924;4.516;2023-11-21T07:04:20;12.80;99.90
24408;DHT22;12542;50.924;4.516;2023-11-21T07:06:45;12.70;99.90
24408;DHT22;12542;50.924;4.516;2023-11-21T07:09:11;12.80;99.90
24408;DHT22;12542;50.924;4.516;2023-11-21T07:11:37;12.90;99.90
24408;DHT22;12542;50.924;4.516;2023-11-21T07:14:06;12.80;99.90
24408;DHT22;12542;50.924;4.516;2023-11-21T07:16:37;12.80;99.90
24408;DHT22;12542;50.924;4.516;2023-11-21T07:19:06;12.80;99.90
24408;DHT22;12542;50.924;4.516;2023-11-21T07:21:33;12.80;99.90
24408;DHT22;12542;50.924;4.516;2023-11-21T07:24:00;12.80;99.90
24408;DHT22;12542;50.924;4.516;2023-11-21T07:26:29;12.90;99.90
24408;DHT22;12542;50.924;4.516;2023-11-21T07:28:55;12.90;99.90
24408;DHT22;12542;50.924;4.516;2023-11-21T07:31:22;12.90;99.90
24408;DHT22;12542;50.924;4.516;2023-11-21T07:33:50;12.90;99.90
24408;DHT22;12542;50.924;4.516;2023-11-21T07:36:17;12.90;99.90
24408;DHT22;12542;50.924;4.516;2023-11-21T07:38:49;13.00;99.90
24408;DHT22;12542;50.924;4.516;2023-11-21T07:41:16;12.80;99.90
24408;DHT22;12542;50.924;4.516;2023-11-21T07:43:43;12.90;99.90
24408;DHT22;12542;50.924;4.516;2023-11-21T07:46:08;12.80;99.90
24408;DHT22;12542;50.924;4.516;2023-11-21T07:48:34;12.80;99.90
24408;DHT22;12542;50.924;4.516;2023-11-21T07:51:02;12.80;99.90
24408;DHT22;12542;50.924;4.516;2023-11-21T07:53:29;12.80;99.90
24408;DHT22;12542;50.924;4.516;2023-11-21T07:56:03;12.80;99.90
24408;DHT22;12542;50.924;4.516;2023-11-21T07:58:29;12.70;99.90
24408;DHT22;12542;50.924;4.516;2023-11-21T08:00:54;12.80;99.90
24408;DHT22;12542;50.924;4.516;2023-11-21T08:03:20;12.90;99.90
24408;DHT22;12542;50.924;4.516;2023-11-21T08:05:46;12.90;99.90
24408;DHT22;12542;50.924;4.516;2023-11-21T08:08:12;13.00;99.90
24408;DHT22;12542;50.924;4.516;2023-11-21T08:10:38;13.00;99.90
24408;DHT22;12542;50.924;4.516;2023-11-21T08:13:05;13.10;99.90
24408;DHT22;12542;50.924;4.516;2023-11-21T08:15:34;13.00;99.90
24408;DHT22;12542;50.924;4.516;2023-11-21T08:18:02;13.10;99.90
24408;DHT22;12542;50.924;4.516;2023-11-21T08:20:28;13.00;99.90
24408;DHT22;12542;50.924;4.516;2023-11-21T08:22:54;13.10;99.90
24408;DHT22;12542;50.924;4.516;2023-11-21T08:25:22;13.00;99.90
24408;DHT22;12542;50.924;4.516;2023-11-21T08:27:48;13.10;99.90
24408;DHT22;12542;50.924;4.516;2023-11-21T08:30:14;13.00;99.90
24408;DHT22;12542;50.924;4.516;2023-11-21T08:32:40;13.10;99.90
24408;DHT22;12542;50.924;4.516;2023-11-21T08:35:07;13.10;99.90
24408;DHT22;12542;50.924;4.516;2023-11-21T08:37:33;13.20;99.90
24408;DHT22;12542;50.924;4.516;2023-11-21T08:40:03;13.10;99.90
24408;DHT22;12542;50.924;4.516;2023-11-21T08:42:29;13.10;99.90
24408;DHT22;12542;50.924;4.516;2023-11-21T08:44:56;13.00;99.90
24408;DHT22;12542;50.924;4.516;2023-11-21T08:47:23;13.10;99.90
24408;DHT22;12542;50.924;4.516;2023-11-21T08:49:50;13.10;99.90
24408;DHT22;12542;50.924;4.516;2023-11-21T08:52:21;13.20;99.90
24408;DHT22;12542;50.924;4.516;2023-11-21T08:54:49;13.20;99.90
24408;DHT22;12542;50.924;4.516;2023-11-21T08:57:21;13.30;99.90
24408;DHT22;12542;50.924;4.516;2023-11-21T08:59:47;13.40;99.90
24408;DHT22;12542;50.924;4.516;2023-11-21T09:02:13;13.40;99.90
24408;DHT22;12542;50.924;4.516;2023-11-21T09:04:38;13.40;99.90
24408;DHT22;12542;50.924;4.516;2023-11-21T09:07:04;13.40;99.90
24408;DHT22;12542;50.924;4.516;2023-11-21T09:09:30;13.50;99.90
24408;DHT22;12542;50.924;4.516;2023-11-21T09:11:56;13.50;99.90
24408;DHT22;12542;50.924;4.516;2023-11-21T09:14:22;13.40;99.90
24408;DHT22;12542;50.924;4.516;2023-11-21T09:16:48;13.50;99.90
24408;DHT22;12542;50.924;4.516;2023-11-21T09:19:15;13.40;99.90
24408;DHT22;12542;50.924;4.516;2023-11-21T09:21:40;13.30;99.90
24408;DHT22;12542;50.924;4.516;2023-11-21T09:24:06;13.40;99.90
24408;DHT22;12542;50.924;4.516;2023-11-21T09:26:34;13.40;99.90
24408;DHT22;12542;50.924;4.516;2023-11-21T09:29:00;13.40;99.90
24408;DHT22;12542;50.924;4.516;2023-11-21T09:31:27;13.30;99.90
24408;DHT22;12542;50.924;4.516;2023-11-21T09:33:53;13.30;99.90
24408;DHT22;12542;50.924;4.516;2023-11-21T09:36:19;13.30;99.90
24408;DHT22;12542;50.924;4.516;2023-11-21T09:38:46;13.10;99.90
24408;DHT22;12542;50.924;4.516;2023-11-21T09:41:52;13.20;99.90
24408;DHT22;12542;50.924;4.516;2023-11-21T09:44:30;13.40;99.90
24408;DHT22;12542;50.924;4.516;2023-11-21T09:46:59;13.50;99.90
24408;DHT22;12542;50.924;4.516;2023-11-21T09:49:26;13.40;99.90
24408;DHT22;12542;50.924;4.516;2023-11-21T09:51:55;13.50;99.90
24408;DHT22;12542;50.924;4.516;2023-11-21T09:54:21;13.60;99.90
24408;DHT22;12542;50.924;4.516;2023-11-21T09:56:48;13.60;99.90
24408;DHT22;12542;50.924;4.516;2023-11-21T09:59:16;13.60;99.90
24408;DHT22;12542;50.924;4.516;2023-11-21T10:01:42;13.40;99.90
24408;DHT22;12542;50.924;4.516;2023-11-21T10:04:11;13.40;99.90
24408;DHT22;12542;50.924;4.516;2023-11-21T10:06:40;13.20;99.90
24408;DHT22;12542;50.924;4.516;2023-11-21T10:09:15;12.90;99.90
24408;DHT22;12542;50.924;4.516;2023-11-21T10:11:42;12.80;99.90
24408;DHT22;12542;50.924;4.516;2023-11-21T10:14:10;12.90;99.90
24408;DHT22;12542;50.924;4.516;2023-11-21T10:16:38;12.70;99.90
24408;DHT22;12542;50.924;4.516;2023-11-21T10:19:05;12.60;99.90
24408;DHT22;12542;50.924;4.516;2023-11-21T10:21:34;12.70;99.90
24408;DHT22;12542;50.924;4.516;2023-11-21T10:24:03;12.80;99.90
24408;DHT22;12542;50.924;4.516;2023-11-21T10:26:29;12.90;99.90
24408;DHT22;12542;50.924;4.516;2023-11-21T10:29:00;13.10;99.90
24408;DHT22;12542;50.924;4.516;2023-11-21T10:31:33;13.20;99.90
24408;DHT22;12542;50.924;4.516;2023-11-21T10:34:16;13.40;99.90
24408;DHT22;12542;50.924;4.516;2023-11-21T10:36:42;13.70;99.90
24408;DHT22;12542;50.924;4.516;2023-11-21T10:39:08;13.90;99.90
24408;DHT22;12542;50.924;4.516;2023-11-21T10:41:35;14.00;99.90
24408;DHT22;12542;50.924;4.516;2023-11-21T10:44:01;13.90;99.90
24408;DHT22;12542;50.924;4.516;2023-11-21T10:46:30;14.00;99.90
24408;DHT22;12542;50.924;4.516;2023-11-21T10:48:56;14.00;99.90
24408;DHT22;12542;50.924;4.516;2023-11-21T10:51:22;13.80;99.90
24408;DHT22;12542;50.924;4.516;2023-11-21T10:53:51;13.70;99.90
24408;DHT22;12542;50.924;4.516;2023-11-21T10:56:18;13.60;99.90
24408;DHT22;12542;50.924;4.516;2023-11-21T10:58:48;13.60;99.90
24408;DHT22;12542;50.924;4.516;2023-11-21T11:01:16;13.70;99.90
24408;DHT22;12542;50.924;4.516;2023-11-21T11:03:44;13.80;99.90
24408;DHT22;12542;50.924;4.516;2023-11-21T11:06:10;13.80;99.90
24408;DHT22;12542;50.924;4.516;2023-11-21T11:08:38;14.00;99.90
24408;DHT22;12542;50.924;4.516;2023-11-21T11:11:09;14.10;99.90
24408;DHT22;12542;50.924;4.516;2023-11-21T11:13:38;14.10;99.90
24408;DHT22;12542;50.924;4.516;2023-11-21T11:16:07;14.20;99.90
24408;DHT22;12542;50.924;4.516;2023-11-21T11:18:35;14.30;99.90
24408;DHT22;12542;50.924;4.516;2023-11-21T11:21:16;14.40;99.90
24408;DHT22;12542;50.924;4.516;2023-11-21T11:29:35;14.50;99.90
24408;DHT22;12542;50.924;4.516;2023-11-21T11:32:27;14.60;99.90
24408;DHT22;12542;50.924;4.516;2023-11-21T11:35:17;14.60;99.90
24408;DHT22;12542;50.924;4.516;2023-11-21T11:37:45;14.50;99.90
24408;DHT22;12542;50.924;4.516;2023-11-21T11:40:13;14.40;99.90
24408;DHT22;12542;50.924;4.516;2023-11-21T11:42:58;14.30;99.90
24408;DHT22;12542;50.924;4.516;2023-11-21T11:45:31;14.40;99.90
24408;DHT22;12542;50.924;4.516;2023-11-21T11:47:57;14.50;99.90
24408;DHT22;12542;50.924;4.516;2023-11-21T11:50:23;14.30;99.90
24408;DHT22;12542;50.924;4.516;2023-11-21T11:52:52;14.40;99.90
24408;DHT22;12542;50.924;4.516;2023-11-21T11:55:21;14.30;99.90
24408;DHT22;12542;50.924;4.516;2023-11-21T11:57:51;14.30;99.90
24408;DHT22;12542;50.924;4.516;2023-11-21T12:02:58;14.20;99.90
24408;DHT22;12542;50.924;4.516;2023-11-21T12:05:26;14.10;99.90
24408;DHT22;12542;50.924;4.516;2023-11-21T12:08:02;14.00;99.90
24408;DHT22;12542;50.924;4.516;2023-11-21T12:10:30;13.90;99.90
24408;DHT22;12542;50.924;4.516;2023-11-21T12:13:00;13.90;99.90
24408;DHT22;12542;50.924;4.516;2023-11-21T12:15:26;14.10;99.90
24408;DHT22;12542;50.924;4.516;2023-11-21T12:17:54;14.10;99.90
24408;DHT22;12542;50.924;4.516;2023-11-21T12:20:22;14.10;99.90
24408;DHT22;12542;50.924;4.516;2023-11-21T12:22:53;14.10;99.90
24408;DHT22;12542;50.924;4.516;2023-11-21T12:25:20;14.10;99.90
24408;DHT22;12542;50.924;4.516;2023-11-21T12:27:48;14.10;99.90
24408;DHT22;12542;50.924;4.516;2023-11-21T12:30:21;14.30;99.90
24408;DHT22;12542;50.924;4.516;2023-11-21T12:32:55;14.30;99.90
24408;DHT22;12542;50.924;4.516;2023-11-21T12:35:25;14.40;99.90
24408;DHT22;12542;50.924;4.516;2023-11-21T12:37:52;14.30;99.90
24408;DHT22;12542;50.924;4.516;2023-11-21T12:40:19;14.50;99.90
24408;DHT22;12542;50.924;4.516;2023-11-21T12:42:47;14.50;99.90
24408;DHT22;12542;50.924;4.516;2023-11-21T12:48:00;14.50;99.90
24408;DHT22;12542;50.924;4.516;2023-11-21T12:50:31;14.40;99.90
24408;DHT22;12542;50.924;4.516;2023-11-21T12:53:04;14.40;99.90
24408;DHT22;12542;50.924;4.516;2023-11-21T12:55:33;14.40;99.90
24408;DHT22;12542;50.924;4.516;2023-11-21T12:58:04;14.40;99.90
24408;DHT22;12542;50.924;4.516;2023-11-21T13:00:46;14.30;99.90
24408;DHT22;12542;50.924;4.516;2023-11-21T13:03:14;14.20;99.90
24408;DHT22;12542;50.924;4.516;2023-11-21T13:05:46;13.80;99.90
24408;DHT22;12542;50.924;4.516;2023-11-21T13:08:16;13.70;99.90
24408;DHT22;12542;50.924;4.516;2023-11-21T13:10:46;13.60;99.90
24408;DHT22;12542;50.924;4.516;2023-11-21T13:13:14;13.50;99.90
24408;DHT22;12542;50.924;4.516;2023-11-21T13:15:50;13.50;99.90
24408;DHT22;12542;50.924;4.516;2023-11-21T13:18:16;13.50;99.90
24408;DHT22;12542;50.924;4.516;2023-11-21T13:20:43;13.50;99.90
24408;DHT22;12542;50.924;4.516;2023-11-21T13:23:10;13.50;99.90
24408;DHT22;12542;50.924;4.516;2023-11-21T13:25:41;13.70;99.90
24408;DHT22;12542;50.924;4.516;2023-11-21T13:28:08;13.70;99.90
24408;DHT22;12542;50.924;4.516;2023-11-21T13:30:35;13.60;99.90
24408;DHT22;12542;50.924;4.516;2023-11-21T13:33:04;13.60;99.90
24408;DHT22;12542;50.924;4.516;2023-11-21T13:35:42;13.60;99.90
24408;DHT22;12542;50.924;4.516;2023-11-21T13:38:14;13.80;99.90
24408;DHT22;12542;50.924;4.516;2023-11-21T13:40:48;13.90;99.90
24408;DHT22;12542;50.924;4.516;2023-11-21T13:43:18;13.90;99.90
24408;DHT22;12542;50.924;4.516;2023-11-21T13:45:47;13.80;99.90
24408;DHT22;12542;50.924;4.516;2023-11-21T13:48:13;13.60;99.90
24408;DHT22;12542;50.924;4.516;2023-11-21T13:50:43;13.40;99.90
24408;DHT22;12542;50.924;4.516;2023-11-21T13:53:35;13.30;99.90
24408;DHT22;12542;50.924;4.516;2023-11-21T13:56:03;13.20;99.90
24408;DHT22;12542;50.924;4.516;2023-11-21T13:58:29;13.20;99.90
24408;DHT22;12542;50.924;4.516;2023-11-21T14:01:10;13.20;99.90
24408;DHT22;12542;50.924;4.516;2023-11-21T14:04:00;13.10;99.90
24408;DHT22;12542;50.924;4.516;2023-11-21T14:06:49;13.10;99.90
24408;DHT22;12542;50.924;4.516;2023-11-21T14:09:21;13.00;99.90
24408;DHT22;12542;50.924;4.516;2023-11-21T14:12:01;13.10;99.90
24408;DHT22;12542;50.924;4.516;2023-11-21T14:14:31;13.30;99.90
24408;DHT22;12542;50.924;4.516;2023-11-21T14:16:57;13.30;99.90
24408;DHT22;12542;50.924;4.516;2023-11-21T14:19:24;13.30;99.90
24408;DHT22;12542;50.924;4.516;2023-11-21T14:21:55;13.30;99.90
24408;DHT22;12542;50.924;4.516;2023-11-21T14:24:21;13.40;99.90
24408;DHT22;12542;50.924;4.516;2023-11-21T14:26:49;13.30;99.90
24408;DHT22;12542;50.924;4.516;2023-11-21T14:29:18;13.10;99.90
24408;DHT22;12542;50.924;4.516;2023-11-21T14:31:49;13.10;99.90
24408;DHT22;12542;50.924;4.516;2023-11-21T14:34:22;13.10;99.90
24408;DHT22;12542;50.924;4.516;2023-11-21T14:36:47;13.00;99.90
24408;DHT22;12542;50.924;4.516;2023-11-21T14:39:14;12.90;99.90
24408;DHT22;12542;50.924;4.516;2023-11-21T14:41:53;12.90;99.90
24408;DHT22;12542;50.924;4.516;2023-11-21T14:44:21;13.00;99.90
24408;DHT22;12542;50.924;4.516;2023-11-21T14:46:50;12.90;99.90
24408;DHT22;12542;50.924;4.516;2023-11-21T14:49:17;12.80;99.90
24408;DHT22;12542;50.924;4.516;2023-11-21T14:51:47;13.00;99.90
24408;DHT22;12542;50.924;4.516;2023-11-21T14:54:34;12.90;99.90
24408;DHT22;12542;50.924;4.516;2023-11-21T14:57:07;12.80;99.90
24408;DHT22;12542;50.924;4.516;2023-11-21T14:59:48;12.80;99.90
24408;DHT22;12542;50.924;4.516;2023-11-21T15:02:20;12.80;99.90
24408;DHT22;12542;50.924;4.516;2023-11-21T15:05:08;12.80;99.90
24408;DHT22;12542;50.924;4.516;2023-11-21T15:07:40;12.90;99.90
24408;DHT22;12542;50.924;4.516;2023-11-21T15:10:07;12.80;99.90
24408;DHT22;12542;50.924;4.516;2023-11-21T15:12:40;12.80;99.90
24408;DHT22;12542;50.924;4.516;2023-11-21T15:15:08;12.80;99.90
24408;DHT22;12542;50.924;4.516;2023-11-21T15:17:36;12.80;99.90
24408;DHT22;12542;50.924;4.516;2023-11-21T15:20:03;12.80;99.90
24408;DHT22;12542;50.924;4.516;2023-11-21T15:22:29;12.70;99.90
24408;DHT22;12542;50.924;4.516;2023-11-21T15:24:55;12.70;99.90
24408;DHT22;12542;50.924;4.516;2023-11-21T15:27:23;12.60;99.90
24408;DHT22;12542;50.924;4.516;2023-11-21T15:29:50;12.60;99.90
24408;DHT22;12542;50.924;4.516;2023-11-21T15:32:19;12.50;99.90
24408;DHT22;12542;50.924;4.516;2023-11-21T15:34:44;12.40;99.90
24408;DHT22;12542;50.924;4.516;2023-11-21T15:37:12;12.50;99.90
24408;DHT22;12542;50.924;4.516;2023-11-21T15:39:41;12.50;99.90
24408;DHT22;12542;50.924;4.516;2023-11-21T15:42:07;12.50;99.90
24408;DHT22;12542;50.924;4.516;2023-11-21T15:44:33;12.60;99.90
24408;DHT22;12542;50.924;4.516;2023-11-21T15:46:59;12.80;99.90